createdAt,value
2019-02-20T00:01:14.057Z,69.50
2019-02-20T00:03:43.403Z,69.80
2019-02-20T00:06:11.976Z,69.00
2019-02-20T00:08:39.273Z,68.30
2019-02-20T00:11:08.804Z,68.50
2019-02-20T00:13:37.013Z,67.60
2019-02-20T00:16:04.748Z,68.10
2019-02-20T00:18:32.985Z,68.10
2019-02-20T00:21:03.754Z,67.30
2019-02-20T00:23:32.071Z,68.00
2019-02-20T00:26:00.864Z,68.50
2019-02-20T00:28:29.142Z,69.90
2019-02-20T00:30:57.971Z,69.30
2019-02-20T00:33:26.832Z,68.80
2019-02-20T00:35:55.380Z,70.00
2019-02-20T00:38:23.703Z,69.10
2019-02-20T00:40:51.969Z,69.10
2019-02-20T00:43:20.186Z,69.10
2019-02-20T00:46:06.328Z,70.00
2019-02-20T00:49:02.791Z,69.60
2019-02-20T00:51:45.391Z,69.20
2019-02-20T00:54:13.558Z,69.60
2019-02-20T00:56:43.074Z,70.40
2019-02-20T00:59:10.467Z,69.90
2019-02-20T01:01:39.444Z,68.70
2019-02-20T01:04:08.211Z,69.10
2019-02-20T01:06:36.601Z,68.90
2019-02-20T01:09:05.359Z,69.00
2019-02-20T01:11:33.037Z,68.10
2019-02-20T01:14:00.999Z,67.90
2019-02-20T01:16:29.387Z,68.50
2019-02-20T01:18:58.125Z,68.40
2019-02-20T01:21:26.262Z,68.30
2019-02-20T01:23:54.323Z,69.00
2019-02-20T01:26:21.986Z,69.10
2019-02-20T01:28:50.255Z,68.90
2019-02-20T01:31:17.674Z,68.60
2019-02-20T01:33:46.337Z,69.30
2019-02-20T01:36:14.791Z,68.80
2019-02-20T01:38:46.163Z,69.60
2019-02-20T01:41:14.205Z,69.90
2019-02-20T01:43:42.491Z,70.20
2019-02-20T01:46:11.986Z,69.70
2019-02-20T01:48:40.763Z,70.40
2019-02-20T01:51:09.527Z,69.70
2019-02-20T01:53:37.728Z,70.10
2019-02-20T01:56:05.387Z,70.30
2019-02-20T01:58:33.781Z,69.90
2019-02-20T02:01:01.860Z,70.10
2019-02-20T02:03:30.030Z,71.20
2019-02-20T02:05:57.702Z,70.70
2019-02-20T02:08:25.754Z,70.30
2019-02-20T02:10:53.096Z,70.10
2019-02-20T02:13:21.893Z,71.00
2019-02-20T02:15:50.662Z,70.20
2019-02-20T02:18:19.184Z,69.40
2019-02-20T02:20:48.323Z,69.90
2019-02-20T02:23:19.805Z,71.10
2019-02-20T02:28:15.269Z,69.50
2019-02-20T02:30:44.285Z,69.60
2019-02-20T02:33:13.063Z,70.20
2019-02-20T02:35:41.016Z,70.00
2019-02-20T02:38:09.074Z,70.10
2019-02-20T02:40:37.759Z,69.60
2019-02-20T02:43:06.141Z,69.40
2019-02-20T02:45:34.827Z,69.50
2019-02-20T02:48:02.520Z,70.20
2019-02-20T02:50:30.658Z,69.40
2019-02-20T02:52:58.630Z,70.10
2019-02-20T02:55:26.369Z,70.40
2019-02-20T02:57:54.543Z,70.20
2019-02-20T03:00:23.006Z,69.40
2019-02-20T03:02:53.444Z,70.00
2019-02-20T03:05:21.762Z,70.00
2019-02-20T03:07:49.435Z,69.40
2019-02-20T03:10:18.195Z,69.40
2019-02-20T03:12:47.005Z,70.10
2019-02-20T03:15:34.148Z,71.00
2019-02-20T03:18:01.682Z,70.80
2019-02-20T03:20:29.336Z,70.80
2019-02-20T03:22:57.418Z,71.00
2019-02-20T03:25:25.086Z,72.10
2019-02-20T03:27:55.909Z,71.60
2019-02-20T03:30:24.313Z,71.00
2019-02-20T03:32:55.191Z,71.50
2019-02-20T03:35:23.339Z,71.20
2019-02-20T03:37:54.262Z,70.00
2019-02-20T03:40:22.321Z,69.70
2019-02-20T03:42:50.103Z,70.30
2019-02-20T03:45:18.199Z,70.00
2019-02-20T03:47:46.335Z,69.90
2019-02-20T03:50:14.613Z,69.40
2019-02-20T03:52:42.924Z,70.10
2019-02-20T03:55:10.655Z,70.00
2019-02-20T03:57:39.063Z,69.80
2019-02-20T04:00:07.987Z,69.70
2019-02-20T04:05:04.138Z,72.10
2019-02-20T04:07:32.746Z,71.50
2019-02-20T04:10:00.963Z,71.60
2019-02-20T04:12:29.814Z,72.40
2019-02-20T04:14:57.915Z,73.10
2019-02-20T04:17:27.003Z,74.10
2019-02-20T04:19:54.619Z,74.70
2019-02-20T04:22:22.636Z,75.30
2019-02-20T04:24:50.069Z,75.80
2019-02-20T04:27:18.043Z,75.10
2019-02-20T04:29:46.461Z,74.30
2019-02-20T04:32:14.922Z,74.60
2019-02-20T04:34:43.507Z,74.70
2019-02-20T04:37:12.186Z,73.10
2019-02-20T04:39:40.257Z,72.40
2019-02-20T04:42:08.339Z,72.90
2019-02-20T04:44:36.407Z,72.40
2019-02-20T04:47:04.620Z,73.30
2019-02-20T04:49:33.411Z,73.00
2019-02-20T04:52:02.809Z,73.40
2019-02-20T04:54:30.839Z,72.80
2019-02-20T04:56:58.923Z,73.20
2019-02-20T04:59:29.068Z,72.30
2019-02-20T05:01:57.103Z,72.80
2019-02-20T05:04:27.515Z,72.40
2019-02-20T05:06:58.960Z,71.60
2019-02-20T05:09:27.163Z,71.50
2019-02-20T05:11:55.389Z,72.00
2019-02-20T05:14:24.012Z,71.80
2019-02-20T05:16:52.109Z,72.20
2019-02-20T05:19:21.337Z,71.90
2019-02-20T05:21:49.473Z,71.00
2019-02-20T05:24:24.479Z,71.60
2019-02-20T05:26:50.276Z,70.50
2019-02-20T05:29:17.991Z,71.00
2019-02-20T05:31:45.761Z,71.20
2019-02-20T05:34:13.836Z,71.70
2019-02-20T05:36:42.638Z,72.60
2019-02-20T05:39:10.801Z,73.10
2019-02-20T05:41:39.414Z,72.30
2019-02-20T05:44:08.871Z,72.30
2019-02-20T05:46:37.561Z,73.20
2019-02-20T05:49:06.444Z,73.60
2019-02-20T05:51:34.603Z,73.60
2019-02-20T05:54:02.835Z,75.20
2019-02-20T05:56:32.266Z,75.10
2019-02-20T05:58:59.784Z,74.50
2019-02-20T06:01:29.611Z,72.80
2019-02-20T06:03:57.477Z,72.40
2019-02-20T06:06:26.368Z,73.00
2019-02-20T06:08:55.656Z,72.00
2019-02-20T06:11:23.510Z,71.90
2019-02-20T06:13:53.117Z,72.40
2019-02-20T06:16:23.612Z,72.60
2019-02-20T06:18:52.300Z,72.40
2019-02-20T06:21:20.402Z,72.30
2019-02-20T06:23:48.630Z,73.10
2019-02-20T06:26:16.515Z,73.40
2019-02-20T06:28:44.932Z,72.80
2019-02-20T06:31:15.682Z,72.30
2019-02-20T06:33:44.239Z,72.80
2019-02-20T06:36:11.851Z,72.70
2019-02-20T06:38:42.069Z,73.20
2019-02-20T06:41:10.577Z,72.80
2019-02-20T06:43:39.133Z,72.70
2019-02-20T06:46:09.325Z,72.50
2019-02-20T06:48:37.683Z,72.40
2019-02-20T06:51:07.292Z,72.50
2019-02-20T06:53:38.109Z,72.90
2019-02-20T06:56:06.163Z,73.50
2019-02-20T06:58:34.752Z,73.40
2019-02-20T07:01:06.179Z,72.80
2019-02-20T07:03:37.094Z,73.90
2019-02-20T07:06:32.780Z,73.30
2019-02-20T07:09:45.230Z,72.90
2019-02-20T07:12:46.596Z,72.80
2019-02-20T07:15:59.390Z,72.60
2019-02-20T07:18:41.448Z,72.30
2019-02-20T07:21:44.992Z,71.90
2019-02-20T07:24:48.103Z,72.20
2019-02-20T07:27:35.553Z,73.00
2019-02-20T07:30:05.882Z,72.30
2019-02-20T07:32:34.286Z,71.70
2019-02-20T07:35:04.357Z,70.80
2019-02-20T07:37:33.428Z,70.20
2019-02-20T07:40:01.540Z,70.50
2019-02-20T07:42:30.899Z,70.00
2019-02-20T07:44:59.099Z,70.00
2019-02-20T07:47:27.205Z,70.70
2019-02-20T07:49:55.991Z,70.20
2019-02-20T07:52:24.069Z,69.40
2019-02-20T07:54:55.584Z,69.90
2019-02-20T07:59:52.838Z,68.60
2019-02-20T08:02:20.913Z,68.90
2019-02-20T08:04:49.163Z,69.00
2019-02-20T08:07:17.248Z,70.10
2019-02-20T08:09:46.070Z,68.30
2019-02-20T08:12:34.544Z,69.00
2019-02-20T08:15:04.876Z,67.80
2019-02-20T08:17:33.599Z,68.30
2019-02-20T08:20:03.092Z,67.80
2019-02-20T08:22:32.055Z,67.70
2019-02-20T08:25:00.928Z,68.20
2019-02-20T08:27:29.609Z,67.60
2019-02-20T08:29:59.328Z,67.40
2019-02-20T08:32:27.319Z,67.70
2019-02-20T08:34:56.363Z,67.70
2019-02-20T08:37:24.500Z,67.10
2019-02-20T08:39:52.850Z,65.30
2019-02-20T08:42:21.026Z,66.50
2019-02-20T08:44:49.699Z,64.40
2019-02-20T08:47:19.153Z,64.50
2019-02-20T08:49:49.851Z,63.30
2019-02-20T08:52:18.798Z,62.70
2019-02-20T08:54:47.612Z,61.80
2019-02-20T08:57:16.591Z,61.30
2019-02-20T08:59:44.699Z,60.70
2019-02-20T09:02:13.052Z,60.10
2019-02-20T09:04:41.153Z,58.80
2019-02-20T09:07:09.204Z,59.30
2019-02-20T09:09:38.103Z,57.50
2019-02-20T09:12:06.187Z,58.90
2019-02-20T09:14:34.198Z,55.30
2019-02-20T09:17:03.495Z,53.90
2019-02-20T09:19:32.691Z,54.70
2019-02-20T09:22:01.469Z,55.20
2019-02-20T09:24:30.349Z,56.30
2019-02-20T09:26:58.305Z,56.00
2019-02-20T09:29:26.856Z,54.80
2019-02-20T09:31:55.272Z,55.50
2019-02-20T09:34:24.127Z,55.50
2019-02-20T09:36:52.530Z,55.70
2019-02-20T09:39:38.567Z,56.10
2019-02-20T09:42:08.497Z,55.20
2019-02-20T09:44:47.561Z,56.40
2019-02-20T09:47:16.198Z,53.50
2019-02-20T09:49:44.011Z,51.80
2019-02-20T09:52:14.657Z,52.70
2019-02-20T09:54:43.025Z,52.20
2019-02-20T09:57:11.839Z,51.00
2019-02-20T09:59:42.754Z,51.00
2019-02-20T10:02:10.827Z,51.60
2019-02-20T10:04:39.896Z,52.20
2019-02-20T10:07:07.796Z,51.70
2019-02-20T10:09:36.752Z,47.10
2019-02-20T10:12:04.864Z,47.80
2019-02-20T10:14:33.276Z,49.40
2019-02-20T10:17:01.312Z,49.90
2019-02-20T10:19:29.419Z,45.30
2019-02-20T10:21:57.580Z,45.20
2019-02-20T10:24:26.339Z,45.10
2019-02-20T10:27:00.584Z,42.60
2019-02-20T10:29:25.112Z,41.60
2019-02-20T10:31:52.441Z,42.30
2019-02-20T10:34:20.880Z,41.00
2019-02-20T10:36:49.121Z,41.10
2019-02-20T10:39:17.241Z,40.00
2019-02-20T10:41:46.127Z,37.30
2019-02-20T10:44:14.097Z,38.70
2019-02-20T10:46:42.893Z,38.90
2019-02-20T10:49:11.079Z,38.70
2019-02-20T10:51:39.549Z,34.80
2019-02-20T10:54:07.699Z,35.70
2019-02-20T10:56:35.411Z,33.70
2019-02-20T10:59:03.855Z,33.20
2019-02-20T11:01:32.079Z,34.70
2019-02-20T11:04:00.242Z,36.20
2019-02-20T11:06:27.926Z,36.80
2019-02-20T11:08:56.307Z,39.50
2019-02-20T11:11:27.913Z,41.60
2019-02-20T11:16:24.459Z,37.70
2019-02-20T11:18:52.775Z,36.90
2019-02-20T11:21:21.009Z,34.20
2019-02-20T11:23:48.687Z,30.60
2019-02-20T11:26:18.952Z,30.00
2019-02-20T11:28:46.993Z,31.90
2019-02-20T11:31:15.351Z,32.90
2019-02-20T11:33:46.215Z,34.50
2019-02-20T11:36:14.373Z,35.30
2019-02-20T11:38:42.450Z,35.90
2019-02-20T11:41:13.464Z,35.40
2019-02-20T11:43:41.258Z,35.90
2019-02-20T11:46:09.002Z,36.30
2019-02-20T11:48:37.600Z,37.90
2019-02-20T11:51:06.758Z,37.10
2019-02-20T11:53:37.441Z,37.80
2019-02-20T11:56:05.904Z,37.00
2019-02-20T11:58:34.792Z,36.70
2019-02-20T12:01:03.574Z,35.60
2019-02-20T12:03:32.601Z,35.90
2019-02-20T12:06:01.981Z,37.30
2019-02-20T12:08:31.304Z,40.00
2019-02-20T12:11:00.459Z,38.60
2019-02-20T12:13:28.455Z,39.00
2019-02-20T12:15:59.529Z,36.80
2019-02-20T12:18:28.267Z,37.00
2019-02-20T12:20:56.672Z,36.20
2019-02-20T12:23:25.463Z,36.30
2019-02-20T12:25:54.400Z,35.20
2019-02-20T12:28:24.433Z,34.40
2019-02-20T12:30:52.539Z,34.60
2019-02-20T12:33:21.170Z,34.10
2019-02-20T12:35:49.218Z,32.50
2019-02-20T12:38:20.335Z,30.20
2019-02-20T12:40:48.726Z,30.80
2019-02-20T12:43:18.039Z,30.80
2019-02-20T12:45:46.712Z,30.70
2019-02-20T12:48:15.005Z,31.40
2019-02-20T12:50:43.267Z,30.00
2019-02-20T12:53:13.887Z,30.50
2019-02-20T12:55:42.295Z,30.50
2019-02-20T12:58:10.508Z,33.30
2019-02-20T13:00:38.826Z,34.90
2019-02-20T13:03:07.489Z,35.50
2019-02-20T13:05:35.544Z,35.90
2019-02-20T13:08:06.952Z,36.40
2019-02-20T13:10:36.589Z,35.70
2019-02-20T13:13:04.881Z,35.60
2019-02-20T13:15:33.281Z,35.30
2019-02-20T13:18:01.306Z,35.50
2019-02-20T13:20:30.196Z,36.50
2019-02-20T13:22:57.927Z,36.70
2019-02-20T13:25:26.100Z,34.90
2019-02-20T13:27:54.315Z,35.90
2019-02-20T13:30:21.923Z,37.50
2019-02-20T13:33:00.206Z,37.60
2019-02-20T13:35:29.720Z,37.80
2019-02-20T13:38:00.592Z,37.00
2019-02-20T13:40:30.219Z,36.10
2019-02-20T13:42:57.990Z,36.80
2019-02-20T13:45:26.581Z,38.50
2019-02-20T13:47:54.739Z,37.70
2019-02-20T13:50:23.220Z,37.50
2019-02-20T13:52:54.070Z,38.80
2019-02-20T13:55:22.708Z,39.30
2019-02-20T13:57:51.955Z,39.60
2019-02-20T14:00:20.008Z,40.20
2019-02-20T14:02:49.198Z,40.70
2019-02-20T14:05:18.153Z,42.10
2019-02-20T14:07:46.725Z,42.80
2019-02-20T14:10:14.073Z,42.30
2019-02-20T14:12:44.082Z,42.50
2019-02-20T14:15:13.486Z,42.10
2019-02-20T14:17:41.784Z,42.30
2019-02-20T14:20:10.532Z,42.20
2019-02-20T14:22:40.510Z,43.80
2019-02-20T14:25:08.249Z,44.30
2019-02-20T14:27:37.334Z,44.50
2019-02-20T14:30:05.299Z,44.50
2019-02-20T14:32:35.080Z,44.80
2019-02-20T14:35:03.126Z,45.20
2019-02-20T14:40:00.054Z,44.20
2019-02-20T14:42:27.888Z,44.40
2019-02-20T14:44:57.970Z,44.30
2019-02-20T14:47:26.786Z,44.10
2019-02-20T14:49:55.444Z,44.90
2019-02-20T14:52:23.711Z,44.30
2019-02-20T14:54:53.170Z,45.00
2019-02-20T14:57:21.854Z,44.60
2019-02-20T14:59:49.517Z,44.80
2019-02-20T15:02:17.821Z,45.30
2019-02-20T15:04:47.751Z,45.60
2019-02-20T15:07:16.003Z,45.20
2019-02-20T15:09:45.611Z,46.10
2019-02-20T15:12:14.607Z,45.80
2019-02-20T15:14:43.341Z,45.70
2019-02-20T15:17:11.664Z,46.30
2019-02-20T15:19:40.395Z,46.60
2019-02-20T15:22:09.909Z,47.40
2019-02-20T15:24:43.230Z,47.30
2019-02-20T15:27:12.135Z,47.40
2019-02-20T15:29:40.759Z,47.30
2019-02-20T15:32:08.804Z,48.00
2019-02-20T15:34:38.325Z,48.10
2019-02-20T15:37:06.876Z,48.40
2019-02-20T15:39:35.260Z,47.90
2019-02-20T15:42:03.106Z,47.90
2019-02-20T15:44:31.977Z,48.50
2019-02-20T15:47:00.663Z,48.50
2019-02-20T15:49:28.743Z,48.70
2019-02-20T15:51:56.889Z,48.40
2019-02-20T15:54:25.412Z,48.90
2019-02-20T15:56:53.719Z,49.00
2019-02-20T15:59:23.952Z,49.50
2019-02-20T16:01:52.081Z,48.80
2019-02-20T16:06:49.730Z,48.90
2019-02-20T16:09:19.441Z,49.70
2019-02-20T16:11:48.303Z,49.80
2019-02-20T16:14:16.946Z,49.90
2019-02-20T16:16:45.973Z,50.40
2019-02-20T16:19:13.644Z,50.90
2019-02-20T16:21:43.088Z,50.50
2019-02-20T16:26:41.273Z,50.40
2019-02-20T16:29:09.415Z,51.20
2019-02-20T16:31:38.893Z,50.50
2019-02-20T16:36:35.664Z,50.40
2019-02-20T16:39:05.236Z,50.80
2019-02-20T16:41:34.866Z,51.30
2019-02-20T16:44:03.145Z,51.60
2019-02-20T16:46:32.089Z,51.30
2019-02-20T16:49:01.041Z,51.80
2019-02-20T16:51:37.055Z,51.70
2019-02-20T16:54:06.512Z,51.80
2019-02-20T16:59:12.528Z,52.30
2019-02-20T17:01:50.978Z,52.80
2019-02-20T17:04:25.267Z,53.00
2019-02-20T17:07:04.434Z,53.20
2019-02-20T17:09:38.413Z,53.40
2019-02-20T17:12:09.045Z,53.70
2019-02-20T17:14:38.749Z,53.80
2019-02-20T17:17:06.900Z,53.80
2019-02-20T17:19:35.462Z,54.50
2019-02-20T17:22:04.180Z,55.00
2019-02-20T17:24:33.405Z,55.00
2019-02-20T17:27:01.419Z,54.60
2019-02-20T17:29:29.903Z,54.90
2019-02-20T17:32:06.476Z,55.30
2019-02-20T17:34:34.433Z,55.10
2019-02-20T17:37:02.519Z,55.70
2019-02-20T17:39:31.373Z,56.10
2019-02-20T17:42:01.427Z,56.10
2019-02-20T17:44:30.412Z,56.50
2019-02-20T17:46:58.913Z,57.10
2019-02-20T17:49:27.588Z,57.20
2019-02-20T17:51:55.578Z,57.80
2019-02-20T17:54:25.266Z,57.10
2019-02-20T17:56:53.429Z,57.20
2019-02-20T17:59:21.924Z,57.70
2019-02-20T18:01:50.234Z,58.00
2019-02-20T18:04:18.368Z,58.20
2019-02-20T18:06:46.511Z,58.40
2019-02-20T18:09:15.655Z,58.70
2019-02-20T18:11:43.853Z,58.70
2019-02-20T18:14:12.137Z,58.80
2019-02-20T18:16:40.625Z,58.60
2019-02-20T18:19:09.270Z,58.60
2019-02-20T18:24:06.246Z,58.60
2019-02-20T18:26:34.824Z,59.10
2019-02-20T18:29:03.201Z,59.90
2019-02-20T18:31:31.727Z,59.90
2019-02-20T18:34:00.521Z,60.30
2019-02-20T18:36:28.651Z,60.10
2019-02-20T18:39:02.331Z,61.50
2019-02-20T18:41:30.469Z,61.10
2019-02-20T18:44:00.035Z,61.60
2019-02-20T18:46:28.224Z,61.00
2019-02-20T18:48:56.408Z,61.30
2019-02-20T18:53:53.048Z,61.10
2019-02-20T18:56:21.957Z,61.40
2019-02-20T18:58:50.142Z,61.40
2019-02-20T19:01:18.690Z,62.10
2019-02-20T19:03:48.359Z,62.70
2019-02-20T19:06:30.905Z,62.10
2019-02-20T19:09:10.740Z,62.70
2019-02-20T19:12:20.879Z,62.30
2019-02-20T19:15:19.541Z,62.20
2019-02-20T19:18:35.079Z,62.40
2019-02-20T19:21:33.199Z,62.60
2019-02-20T19:24:41.947Z,63.00
2019-02-20T19:27:52.164Z,63.10
2019-02-20T19:31:21.966Z,63.10
2019-02-20T19:34:39.835Z,62.80
2019-02-20T19:37:15.301Z,63.00
2019-02-20T19:40:28.505Z,63.00
2019-02-20T19:43:26.993Z,63.60
2019-02-20T19:46:35.717Z,62.90
2019-02-20T19:49:34.486Z,64.00
2019-02-20T19:52:35.999Z,63.30
2019-02-20T19:55:21.788Z,63.80
2019-02-20T19:58:29.555Z,64.00
2019-02-20T20:01:44.770Z,63.80
2019-02-20T20:05:00.752Z,63.40
2019-02-20T20:07:55.520Z,63.80
2019-02-20T20:11:10.834Z,64.40
2019-02-20T20:13:49.514Z,64.40
2019-02-20T20:16:50.979Z,64.30
2019-02-20T20:20:08.907Z,64.30
2019-02-20T20:22:55.776Z,64.50
2019-02-20T20:26:11.637Z,64.90
2019-02-20T20:29:27.258Z,64.80
2019-02-20T20:32:35.104Z,64.20
2019-02-20T20:36:06.190Z,64.60
2019-02-20T20:39:00.135Z,65.70
2019-02-20T20:42:12.429Z,64.80
2019-02-20T20:45:13.823Z,65.50
2019-02-20T20:48:24.995Z,64.90
2019-02-20T20:51:31.418Z,65.00
2019-02-20T20:54:39.732Z,65.70
2019-02-20T20:57:22.182Z,64.90
2019-02-20T21:00:33.862Z,65.70
2019-02-20T21:03:06.492Z,66.00
2019-02-20T21:06:12.511Z,66.30
2019-02-20T21:08:58.411Z,65.80
2019-02-20T21:12:20.290Z,65.60
2019-02-20T21:15:10.656Z,65.50
2019-02-20T21:18:25.270Z,65.50
2019-02-20T21:21:15.902Z,65.40
2019-02-20T21:24:24.585Z,65.30
2019-02-20T21:27:18.614Z,65.90
2019-02-20T21:30:43.323Z,65.50
2019-02-20T21:33:55.044Z,65.30
2019-02-20T21:36:56.046Z,65.30
2019-02-20T21:39:35.404Z,65.60
2019-02-20T21:42:13.591Z,66.00
2019-02-20T21:45:03.991Z,66.00
2019-02-20T21:48:29.157Z,65.70
2019-02-20T21:51:37.912Z,65.50
2019-02-20T21:54:30.671Z,65.70
2019-02-20T21:57:40.384Z,65.60
2019-02-20T22:00:28.000Z,65.70
2019-02-20T22:03:40.468Z,66.00
2019-02-20T22:06:54.821Z,66.10
2019-02-20T22:09:45.882Z,66.80
2019-02-20T22:12:52.241Z,66.80
2019-02-20T22:16:07.891Z,68.50
2019-02-20T22:18:53.668Z,68.30
2019-02-20T22:22:02.807Z,68.70
2019-02-20T22:25:04.771Z,68.10
2019-02-20T22:28:20.263Z,68.40
2019-02-20T22:31:00.982Z,67.60
2019-02-20T22:33:40.798Z,67.30
2019-02-20T22:36:53.211Z,67.10
2019-02-20T22:40:05.442Z,67.50
2019-02-20T22:42:52.723Z,66.50
2019-02-20T22:45:52.972Z,66.90
2019-02-20T22:48:35.810Z,66.60
2019-02-20T22:51:32.297Z,66.40
2019-02-20T22:54:26.287Z,66.60
2019-02-20T22:57:32.549Z,67.00
2019-02-20T23:00:53.366Z,66.80
2019-02-20T23:04:10.727Z,68.00
2019-02-20T23:07:05.001Z,67.90
2019-02-20T23:09:58.464Z,68.20
2019-02-20T23:12:59.895Z,67.80
2019-02-20T23:15:28.604Z,67.50
2019-02-20T23:17:57.759Z,67.40
2019-02-20T23:20:26.668Z,67.30
2019-02-20T23:22:57.012Z,68.10
2019-02-20T23:25:24.861Z,67.40
2019-02-20T23:27:53.557Z,68.20
2019-02-20T23:30:21.719Z,67.60
2019-02-20T23:32:49.513Z,68.40
2019-02-20T23:35:17.553Z,68.70
2019-02-20T23:37:45.626Z,67.80
2019-02-20T23:40:13.308Z,67.80
2019-02-20T23:42:42.872Z,68.00
2019-02-20T23:45:11.389Z,68.30
2019-02-20T23:47:39.977Z,68.30
2019-02-20T23:50:09.159Z,68.10
2019-02-20T23:52:37.442Z,67.90
2019-02-20T23:55:05.522Z,68.50
2019-02-20T23:57:33.647Z,68.60
